sensor_id;sensor_type;location;lat;lon;timestamp;P1;durP1;ratioP1;P2;durP2;ratioP2
18532;SDS011;9396;51.510;11.934;2022-12-18T00:01:49;43.65;;;22.13;;
18532;SDS011;9396;51.510;11.934;2022-12-18T00:04:17;43.83;;;21.40;;
18532;SDS011;9396;51.510;11.934;2022-12-18T00:06:46;44.67;;;21.95;;
18532;SDS011;9396;51.510;11.934;2022-12-18T00:09:13;47.45;;;21.73;;
18532;SDS011;9396;51.510;11.934;2022-12-18T00:11:40;42.40;;;21.73;;
18532;SDS011;9396;51.510;11.934;2022-12-18T00:14:08;38.90;;;21.45;;
18532;SDS011;9396;51.510;11.934;2022-12-18T00:16:36;40.35;;;21.38;;
18532;SDS011;9396;51.510;11.934;2022-12-18T00:19:05;44.22;;;20.08;;
18532;SDS011;9396;51.510;11.934;2022-12-18T00:21:32;43.92;;;22.88;;
18532;SDS011;9396;51.510;11.934;2022-12-18T00:23:59;45.85;;;23.38;;
18532;SDS011;9396;51.510;11.934;2022-12-18T00:26:27;47.35;;;22.95;;
18532;SDS011;9396;51.510;11.934;2022-12-18T00:28:57;46.88;;;23.38;;
18532;SDS011;9396;51.510;11.934;2022-12-18T00:31:25;40.28;;;21.73;;
18532;SDS011;9396;51.510;11.934;2022-12-18T00:33:53;41.53;;;22.50;;
18532;SDS011;9396;51.510;11.934;2022-12-18T00:36:21;44.38;;;21.83;;
18532;SDS011;9396;51.510;11.934;2022-12-18T00:38:50;46.92;;;23.05;;
18532;SDS011;9396;51.510;11.934;2022-12-18T00:41:17;46.60;;;23.13;;
18532;SDS011;9396;51.510;11.934;2022-12-18T00:43:58;49.22;;;24.25;;
18532;SDS011;9396;51.510;11.934;2022-12-18T00:46:25;52.72;;;23.52;;
18532;SDS011;9396;51.510;11.934;2022-12-18T00:48:52;43.45;;;22.15;;
18532;SDS011;9396;51.510;11.934;2022-12-18T00:51:18;42.63;;;21.58;;
18532;SDS011;9396;51.510;11.934;2022-12-18T00:53:46;50.05;;;23.65;;
18532;SDS011;9396;51.510;11.934;2022-12-18T00:56:13;48.35;;;22.38;;
18532;SDS011;9396;51.510;11.934;2022-12-18T00:58:40;49.33;;;23.15;;
18532;SDS011;9396;51.510;11.934;2022-12-18T01:01:06;52.65;;;24.17;;
18532;SDS011;9396;51.510;11.934;2022-12-18T01:03:34;47.47;;;23.52;;
18532;SDS011;9396;51.510;11.934;2022-12-18T01:06:04;44.35;;;22.08;;
18532;SDS011;9396;51.510;11.934;2022-12-18T01:08:32;47.33;;;22.58;;
18532;SDS011;9396;51.510;11.934;2022-12-18T01:11:00;52.22;;;24.50;;
18532;SDS011;9396;51.510;11.934;2022-12-18T01:13:27;47.33;;;22.75;;
18532;SDS011;9396;51.510;11.934;2022-12-18T01:15:54;45.78;;;23.23;;
18532;SDS011;9396;51.510;11.934;2022-12-18T01:18:20;45.92;;;22.20;;
18532;SDS011;9396;51.510;11.934;2022-12-18T01:20:47;41.90;;;21.33;;
18532;SDS011;9396;51.510;11.934;2022-12-18T01:23:13;46.28;;;20.08;;
18532;SDS011;9396;51.510;11.934;2022-12-18T01:25:40;41.80;;;20.58;;
18532;SDS011;9396;51.510;11.934;2022-12-18T01:28:08;43.70;;;21.35;;
18532;SDS011;9396;51.510;11.934;2022-12-18T01:30:35;41.88;;;21.08;;
18532;SDS011;9396;51.510;11.934;2022-12-18T01:33:02;39.67;;;20.92;;
18532;SDS011;9396;51.510;11.934;2022-12-18T01:35:30;44.30;;;20.80;;
18532;SDS011;9396;51.510;11.934;2022-12-18T01:37:57;44.95;;;21.05;;
18532;SDS011;9396;51.510;11.934;2022-12-18T01:40:23;37.33;;;18.95;;
18532;SDS011;9396;51.510;11.934;2022-12-18T01:42:50;41.90;;;19.80;;
18532;SDS011;9396;51.510;11.934;2022-12-18T01:45:26;39.65;;;20.73;;
18532;SDS011;9396;51.510;11.934;2022-12-18T01:47:54;38.10;;;18.52;;
18532;SDS011;9396;51.510;11.934;2022-12-18T01:50:24;35.35;;;18.73;;
18532;SDS011;9396;51.510;11.934;2022-12-18T01:52:53;36.75;;;18.15;;
18532;SDS011;9396;51.510;11.934;2022-12-18T01:55:23;33.72;;;17.95;;
18532;SDS011;9396;51.510;11.934;2022-12-18T01:57:52;36.10;;;17.33;;
18532;SDS011;9396;51.510;11.934;2022-12-18T02:00:21;36.42;;;17.80;;
18532;SDS011;9396;51.510;11.934;2022-12-18T02:02:51;32.10;;;17.35;;
18532;SDS011;9396;51.510;11.934;2022-12-18T02:05:33;30.08;;;17.30;;
18532;SDS011;9396;51.510;11.934;2022-12-18T02:08:08;34.90;;;17.23;;
18532;SDS011;9396;51.510;11.934;2022-12-18T02:10:41;33.15;;;17.65;;
18532;SDS011;9396;51.510;11.934;2022-12-18T02:13:14;33.78;;;17.48;;
18532;SDS011;9396;51.510;11.934;2022-12-18T02:15:49;35.63;;;17.52;;
18532;SDS011;9396;51.510;11.934;2022-12-18T02:18:22;34.08;;;17.08;;
18532;SDS011;9396;51.510;11.934;2022-12-18T02:20:54;38.72;;;18.33;;
18532;SDS011;9396;51.510;11.934;2022-12-18T02:23:35;34.70;;;18.35;;
18532;SDS011;9396;51.510;11.934;2022-12-18T02:26:20;35.45;;;17.55;;
18532;SDS011;9396;51.510;11.934;2022-12-18T02:28:51;40.22;;;18.75;;
18532;SDS011;9396;51.510;11.934;2022-12-18T02:31:23;40.17;;;19.27;;
18532;SDS011;9396;51.510;11.934;2022-12-18T02:33:53;40.45;;;17.77;;
18532;SDS011;9396;51.510;11.934;2022-12-18T02:36:22;46.88;;;20.63;;
18532;SDS011;9396;51.510;11.934;2022-12-18T02:38:51;40.10;;;19.45;;
18532;SDS011;9396;51.510;11.934;2022-12-18T02:41:21;45.67;;;19.67;;
18532;SDS011;9396;51.510;11.934;2022-12-18T02:43:48;39.67;;;19.10;;
18532;SDS011;9396;51.510;11.934;2022-12-18T02:46:27;38.58;;;18.15;;
18532;SDS011;9396;51.510;11.934;2022-12-18T02:48:59;40.10;;;17.33;;
18532;SDS011;9396;51.510;11.934;2022-12-18T02:51:33;44.58;;;18.58;;
18532;SDS011;9396;51.510;11.934;2022-12-18T02:54:09;41.78;;;18.98;;
18532;SDS011;9396;51.510;11.934;2022-12-18T02:56:45;36.25;;;17.77;;
18532;SDS011;9396;51.510;11.934;2022-12-18T02:59:15;40.45;;;18.73;;
18532;SDS011;9396;51.510;11.934;2022-12-18T03:01:49;36.17;;;17.50;;
18532;SDS011;9396;51.510;11.934;2022-12-18T03:04:20;34.75;;;17.20;;
18532;SDS011;9396;51.510;11.934;2022-12-18T03:06:53;32.88;;;16.60;;
18532;SDS011;9396;51.510;11.934;2022-12-18T03:09:23;36.00;;;17.98;;
18532;SDS011;9396;51.510;11.934;2022-12-18T03:11:56;41.05;;;18.45;;
18532;SDS011;9396;51.510;11.934;2022-12-18T03:14:45;31.95;;;16.35;;
18532;SDS011;9396;51.510;11.934;2022-12-18T03:17:17;41.30;;;17.58;;
18532;SDS011;9396;51.510;11.934;2022-12-18T03:19:49;37.05;;;17.55;;
18532;SDS011;9396;51.510;11.934;2022-12-18T03:22:19;38.28;;;17.52;;
18532;SDS011;9396;51.510;11.934;2022-12-18T03:24:48;35.05;;;17.15;;
18532;SDS011;9396;51.510;11.934;2022-12-18T03:27:17;40.25;;;17.48;;
18532;SDS011;9396;51.510;11.934;2022-12-18T03:29:47;46.97;;;19.45;;
18532;SDS011;9396;51.510;11.934;2022-12-18T03:32:19;37.47;;;17.80;;
18532;SDS011;9396;51.510;11.934;2022-12-18T03:34:51;35.53;;;16.85;;
18532;SDS011;9396;51.510;11.934;2022-12-18T03:37:21;35.08;;;17.85;;
18532;SDS011;9396;51.510;11.934;2022-12-18T03:39:48;34.33;;;15.68;;
18532;SDS011;9396;51.510;11.934;2022-12-18T03:42:15;32.75;;;16.42;;
18532;SDS011;9396;51.510;11.934;2022-12-18T03:44:53;33.70;;;16.45;;
18532;SDS011;9396;51.510;11.934;2022-12-18T03:47:25;36.60;;;17.23;;
18532;SDS011;9396;51.510;11.934;2022-12-18T03:49:55;34.00;;;16.77;;
18532;SDS011;9396;51.510;11.934;2022-12-18T03:52:28;35.05;;;17.10;;
18532;SDS011;9396;51.510;11.934;2022-12-18T03:55:01;35.95;;;17.85;;
18532;SDS011;9396;51.510;11.934;2022-12-18T03:57:32;35.22;;;17.85;;
18532;SDS011;9396;51.510;11.934;2022-12-18T04:00:00;30.67;;;16.17;;
18532;SDS011;9396;51.510;11.934;2022-12-18T04:02:32;32.70;;;16.88;;
18532;SDS011;9396;51.510;11.934;2022-12-18T04:05:03;32.95;;;16.60;;
18532;SDS011;9396;51.510;11.934;2022-12-18T04:07:33;32.25;;;16.58;;
18532;SDS011;9396;51.510;11.934;2022-12-18T04:10:00;30.40;;;16.52;;
18532;SDS011;9396;51.510;11.934;2022-12-18T04:12:29;34.15;;;17.40;;
18532;SDS011;9396;51.510;11.934;2022-12-18T04:14:57;36.45;;;17.15;;
18532;SDS011;9396;51.510;11.934;2022-12-18T04:17:24;36.25;;;15.55;;
18532;SDS011;9396;51.510;11.934;2022-12-18T04:19:51;31.90;;;15.90;;
18532;SDS011;9396;51.510;11.934;2022-12-18T04:22:17;36.45;;;16.35;;
18532;SDS011;9396;51.510;11.934;2022-12-18T04:24:44;32.85;;;17.60;;
18532;SDS011;9396;51.510;11.934;2022-12-18T04:27:11;34.78;;;17.15;;
18532;SDS011;9396;51.510;11.934;2022-12-18T04:29:37;33.63;;;17.20;;
18532;SDS011;9396;51.510;11.934;2022-12-18T04:32:05;38.90;;;18.38;;
18532;SDS011;9396;51.510;11.934;2022-12-18T04:34:33;31.05;;;17.45;;
18532;SDS011;9396;51.510;11.934;2022-12-18T04:36:59;36.63;;;17.27;;
18532;SDS011;9396;51.510;11.934;2022-12-18T04:39:26;37.63;;;17.75;;
18532;SDS011;9396;51.510;11.934;2022-12-18T04:41:52;32.50;;;15.70;;
18532;SDS011;9396;51.510;11.934;2022-12-18T04:44:19;32.17;;;15.82;;
18532;SDS011;9396;51.510;11.934;2022-12-18T04:46:46;30.65;;;16.05;;
18532;SDS011;9396;51.510;11.934;2022-12-18T04:49:14;34.53;;;17.45;;
18532;SDS011;9396;51.510;11.934;2022-12-18T04:51:40;31.15;;;15.35;;
18532;SDS011;9396;51.510;11.934;2022-12-18T04:54:07;35.30;;;16.40;;
18532;SDS011;9396;51.510;11.934;2022-12-18T04:56:33;32.30;;;17.80;;
18532;SDS011;9396;51.510;11.934;2022-12-18T04:59:00;33.70;;;15.35;;
18532;SDS011;9396;51.510;11.934;2022-12-18T05:01:27;28.83;;;15.55;;
18532;SDS011;9396;51.510;11.934;2022-12-18T05:03:53;30.13;;;16.55;;
18532;SDS011;9396;51.510;11.934;2022-12-18T05:06:21;31.25;;;16.25;;
18532;SDS011;9396;51.510;11.934;2022-12-18T05:08:48;30.05;;;16.48;;
18532;SDS011;9396;51.510;11.934;2022-12-18T05:11:14;33.92;;;16.25;;
18532;SDS011;9396;51.510;11.934;2022-12-18T05:13:42;31.63;;;15.68;;
18532;SDS011;9396;51.510;11.934;2022-12-18T05:16:09;30.45;;;15.93;;
18532;SDS011;9396;51.510;11.934;2022-12-18T05:18:36;30.85;;;15.75;;
18532;SDS011;9396;51.510;11.934;2022-12-18T05:21:03;29.52;;;16.15;;
18532;SDS011;9396;51.510;11.934;2022-12-18T05:23:34;27.08;;;15.00;;
18532;SDS011;9396;51.510;11.934;2022-12-18T05:26:03;29.33;;;15.63;;
18532;SDS011;9396;51.510;11.934;2022-12-18T05:28:32;34.40;;;15.73;;
18532;SDS011;9396;51.510;11.934;2022-12-18T05:31:01;27.77;;;15.55;;
18532;SDS011;9396;51.510;11.934;2022-12-18T05:33:29;28.40;;;16.05;;
18532;SDS011;9396;51.510;11.934;2022-12-18T05:35:58;30.70;;;15.65;;
18532;SDS011;9396;51.510;11.934;2022-12-18T05:38:28;30.40;;;15.35;;
18532;SDS011;9396;51.510;11.934;2022-12-18T05:40:58;32.58;;;15.57;;
18532;SDS011;9396;51.510;11.934;2022-12-18T05:43:26;27.92;;;15.30;;
18532;SDS011;9396;51.510;11.934;2022-12-18T05:45:53;32.90;;;15.52;;
18532;SDS011;9396;51.510;11.934;2022-12-18T05:48:21;29.48;;;15.77;;
18532;SDS011;9396;51.510;11.934;2022-12-18T05:50:49;32.75;;;15.85;;
18532;SDS011;9396;51.510;11.934;2022-12-18T05:53:17;28.90;;;15.20;;
18532;SDS011;9396;51.510;11.934;2022-12-18T05:55:46;29.98;;;16.00;;
18532;SDS011;9396;51.510;11.934;2022-12-18T05:58:15;32.88;;;15.98;;
18532;SDS011;9396;51.510;11.934;2022-12-18T06:00:44;31.48;;;15.63;;
18532;SDS011;9396;51.510;11.934;2022-12-18T06:03:12;32.38;;;15.45;;
18532;SDS011;9396;51.510;11.934;2022-12-18T06:05:40;31.00;;;15.13;;
18532;SDS011;9396;51.510;11.934;2022-12-18T06:08:08;33.47;;;16.23;;
18532;SDS011;9396;51.510;11.934;2022-12-18T06:10:35;32.97;;;15.68;;
18532;SDS011;9396;51.510;11.934;2022-12-18T06:13:02;34.85;;;16.13;;
18532;SDS011;9396;51.510;11.934;2022-12-18T06:15:30;29.17;;;14.95;;
18532;SDS011;9396;51.510;11.934;2022-12-18T06:17:57;34.40;;;15.32;;
18532;SDS011;9396;51.510;11.934;2022-12-18T06:20:24;30.77;;;16.48;;
18532;SDS011;9396;51.510;11.934;2022-12-18T06:22:50;34.88;;;15.23;;
18532;SDS011;9396;51.510;11.934;2022-12-18T06:25:17;35.60;;;16.15;;
18532;SDS011;9396;51.510;11.934;2022-12-18T06:27:44;33.97;;;15.63;;
18532;SDS011;9396;51.510;11.934;2022-12-18T06:30:13;34.72;;;15.80;;
18532;SDS011;9396;51.510;11.934;2022-12-18T06:32:41;34.60;;;17.05;;
18532;SDS011;9396;51.510;11.934;2022-12-18T06:35:08;36.97;;;16.05;;
18532;SDS011;9396;51.510;11.934;2022-12-18T06:37:35;33.38;;;17.13;;
18532;SDS011;9396;51.510;11.934;2022-12-18T06:40:01;31.13;;;14.77;;
18532;SDS011;9396;51.510;11.934;2022-12-18T06:42:28;31.63;;;17.25;;
18532;SDS011;9396;51.510;11.934;2022-12-18T06:44:55;33.10;;;16.48;;
18532;SDS011;9396;51.510;11.934;2022-12-18T06:47:22;31.17;;;15.10;;
18532;SDS011;9396;51.510;11.934;2022-12-18T06:49:50;35.25;;;16.55;;
18532;SDS011;9396;51.510;11.934;2022-12-18T06:52:16;32.55;;;15.23;;
18532;SDS011;9396;51.510;11.934;2022-12-18T06:54:43;27.30;;;14.95;;
18532;SDS011;9396;51.510;11.934;2022-12-18T06:57:10;34.35;;;18.33;;
18532;SDS011;9396;51.510;11.934;2022-12-18T06:59:36;33.53;;;17.17;;
18532;SDS011;9396;51.510;11.934;2022-12-18T07:02:03;31.15;;;16.15;;
18532;SDS011;9396;51.510;11.934;2022-12-18T07:04:30;33.92;;;17.48;;
18532;SDS011;9396;51.510;11.934;2022-12-18T07:06:58;33.08;;;17.40;;
18532;SDS011;9396;51.510;11.934;2022-12-18T07:09:25;35.05;;;18.13;;
18532;SDS011;9396;51.510;11.934;2022-12-18T07:11:52;35.40;;;18.25;;
18532;SDS011;9396;51.510;11.934;2022-12-18T07:14:18;31.77;;;16.75;;
18532;SDS011;9396;51.510;11.934;2022-12-18T07:16:45;29.05;;;16.20;;
18532;SDS011;9396;51.510;11.934;2022-12-18T07:19:12;35.60;;;17.17;;
18532;SDS011;9396;51.510;11.934;2022-12-18T07:21:38;29.25;;;15.98;;
18532;SDS011;9396;51.510;11.934;2022-12-18T07:24:07;39.00;;;17.40;;
18532;SDS011;9396;51.510;11.934;2022-12-18T07:26:33;40.55;;;16.63;;
18532;SDS011;9396;51.510;11.934;2022-12-18T07:29:00;33.58;;;17.05;;
18532;SDS011;9396;51.510;11.934;2022-12-18T07:31:27;32.03;;;16.58;;
18532;SDS011;9396;51.510;11.934;2022-12-18T07:33:54;32.17;;;15.30;;
18532;SDS011;9396;51.510;11.934;2022-12-18T07:36:23;30.95;;;17.08;;
18532;SDS011;9396;51.510;11.934;2022-12-18T07:38:50;33.25;;;16.55;;
18532;SDS011;9396;51.510;11.934;2022-12-18T07:41:19;31.67;;;15.95;;
18532;SDS011;9396;51.510;11.934;2022-12-18T07:43:46;33.13;;;15.88;;
18532;SDS011;9396;51.510;11.934;2022-12-18T07:46:13;34.20;;;16.33;;
18532;SDS011;9396;51.510;11.934;2022-12-18T07:48:41;31.83;;;16.67;;
18532;SDS011;9396;51.510;11.934;2022-12-18T07:51:08;33.92;;;15.63;;
18532;SDS011;9396;51.510;11.934;2022-12-18T07:53:38;30.98;;;15.43;;
18532;SDS011;9396;51.510;11.934;2022-12-18T07:56:06;36.05;;;16.80;;
18532;SDS011;9396;51.510;11.934;2022-12-18T07:58:35;30.75;;;15.80;;
18532;SDS011;9396;51.510;11.934;2022-12-18T08:01:03;31.65;;;16.45;;
18532;SDS011;9396;51.510;11.934;2022-12-18T08:03:30;32.42;;;16.60;;
18532;SDS011;9396;51.510;11.934;2022-12-18T08:05:58;32.45;;;16.02;;
18532;SDS011;9396;51.510;11.934;2022-12-18T08:08:28;32.75;;;15.95;;
18532;SDS011;9396;51.510;11.934;2022-12-18T08:10:55;29.27;;;14.85;;
18532;SDS011;9396;51.510;11.934;2022-12-18T08:13:22;31.17;;;15.85;;
18532;SDS011;9396;51.510;11.934;2022-12-18T08:15:56;33.65;;;15.55;;
18532;SDS011;9396;51.510;11.934;2022-12-18T08:18:23;36.63;;;16.83;;
18532;SDS011;9396;51.510;11.934;2022-12-18T08:20:50;33.05;;;17.17;;
18532;SDS011;9396;51.510;11.934;2022-12-18T08:23:17;38.47;;;17.50;;
18532;SDS011;9396;51.510;11.934;2022-12-18T08:25:43;34.00;;;17.42;;
18532;SDS011;9396;51.510;11.934;2022-12-18T08:28:10;29.30;;;15.38;;
18532;SDS011;9396;51.510;11.934;2022-12-18T08:30:36;34.40;;;16.58;;
18532;SDS011;9396;51.510;11.934;2022-12-18T08:33:05;33.83;;;15.85;;
18532;SDS011;9396;51.510;11.934;2022-12-18T08:35:34;28.77;;;16.15;;
18532;SDS011;9396;51.510;11.934;2022-12-18T08:38:01;35.22;;;16.33;;
18532;SDS011;9396;51.510;11.934;2022-12-18T08:40:28;33.58;;;15.10;;
18532;SDS011;9396;51.510;11.934;2022-12-18T08:42:55;38.22;;;16.67;;
18532;SDS011;9396;51.510;11.934;2022-12-18T08:45:39;30.42;;;15.60;;
18532;SDS011;9396;51.510;11.934;2022-12-18T08:48:07;34.15;;;17.20;;
18532;SDS011;9396;51.510;11.934;2022-12-18T08:50:33;32.25;;;16.20;;
18532;SDS011;9396;51.510;11.934;2022-12-18T08:53:00;33.00;;;17.42;;
18532;SDS011;9396;51.510;11.934;2022-12-18T08:55:27;33.08;;;15.80;;
18532;SDS011;9396;51.510;11.934;2022-12-18T08:57:53;33.65;;;16.73;;
18532;SDS011;9396;51.510;11.934;2022-12-18T09:00:20;32.38;;;15.27;;
18532;SDS011;9396;51.510;11.934;2022-12-18T09:02:47;33.95;;;16.42;;
18532;SDS011;9396;51.510;11.934;2022-12-18T09:05:15;36.22;;;16.33;;
18532;SDS011;9396;51.510;11.934;2022-12-18T09:07:41;28.58;;;14.82;;
18532;SDS011;9396;51.510;11.934;2022-12-18T09:10:08;32.42;;;16.35;;
18532;SDS011;9396;51.510;11.934;2022-12-18T09:12:35;36.35;;;17.55;;
18532;SDS011;9396;51.510;11.934;2022-12-18T09:15:02;33.00;;;16.77;;
18532;SDS011;9396;51.510;11.934;2022-12-18T09:17:29;33.35;;;16.63;;
18532;SDS011;9396;51.510;11.934;2022-12-18T09:19:55;36.45;;;16.85;;
18532;SDS011;9396;51.510;11.934;2022-12-18T09:22:23;32.90;;;17.88;;
18532;SDS011;9396;51.510;11.934;2022-12-18T09:24:50;32.88;;;17.10;;
18532;SDS011;9396;51.510;11.934;2022-12-18T09:27:17;37.92;;;18.08;;
18532;SDS011;9396;51.510;11.934;2022-12-18T09:29:43;34.58;;;17.05;;
18532;SDS011;9396;51.510;11.934;2022-12-18T09:32:10;37.03;;;18.75;;
18532;SDS011;9396;51.510;11.934;2022-12-18T09:34:36;33.17;;;17.33;;
18532;SDS011;9396;51.510;11.934;2022-12-18T09:37:03;35.45;;;18.15;;
18532;SDS011;9396;51.510;11.934;2022-12-18T09:39:31;40.63;;;19.42;;
18532;SDS011;9396;51.510;11.934;2022-12-18T09:42:00;35.78;;;18.63;;
18532;SDS011;9396;51.510;11.934;2022-12-18T09:44:27;40.25;;;20.67;;
18532;SDS011;9396;51.510;11.934;2022-12-18T09:46:59;37.47;;;19.88;;
18532;SDS011;9396;51.510;11.934;2022-12-18T09:49:34;36.75;;;19.05;;
18532;SDS011;9396;51.510;11.934;2022-12-18T09:52:08;36.50;;;19.13;;
18532;SDS011;9396;51.510;11.934;2022-12-18T09:54:44;34.92;;;17.63;;
18532;SDS011;9396;51.510;11.934;2022-12-18T09:57:17;34.97;;;18.67;;
18532;SDS011;9396;51.510;11.934;2022-12-18T09:59:47;37.92;;;18.23;;
18532;SDS011;9396;51.510;11.934;2022-12-18T10:02:20;27.38;;;16.08;;
18532;SDS011;9396;51.510;11.934;2022-12-18T10:04:53;34.95;;;18.83;;
18532;SDS011;9396;51.510;11.934;2022-12-18T10:07:29;33.85;;;18.48;;
18532;SDS011;9396;51.510;11.934;2022-12-18T10:10:10;36.75;;;18.27;;
18532;SDS011;9396;51.510;11.934;2022-12-18T10:12:46;33.40;;;18.25;;
18532;SDS011;9396;51.510;11.934;2022-12-18T10:15:23;41.00;;;19.92;;
18532;SDS011;9396;51.510;11.934;2022-12-18T10:17:57;36.35;;;18.20;;
18532;SDS011;9396;51.510;11.934;2022-12-18T10:20:34;37.95;;;21.58;;
18532;SDS011;9396;51.510;11.934;2022-12-18T10:23:09;42.90;;;25.17;;
18532;SDS011;9396;51.510;11.934;2022-12-18T10:25:50;35.38;;;21.17;;
18532;SDS011;9396;51.510;11.934;2022-12-18T10:28:21;34.20;;;18.52;;
18532;SDS011;9396;51.510;11.934;2022-12-18T10:30:49;29.88;;;16.02;;
18532;SDS011;9396;51.510;11.934;2022-12-18T10:33:16;15.18;;;11.27;;
18532;SDS011;9396;51.510;11.934;2022-12-18T10:35:45;25.40;;;13.13;;
18532;SDS011;9396;51.510;11.934;2022-12-18T10:38:21;18.70;;;10.48;;
18532;SDS011;9396;51.510;11.934;2022-12-18T10:40:52;18.98;;;9.60;;
18532;SDS011;9396;51.510;11.934;2022-12-18T10:43:22;15.48;;;8.25;;
18532;SDS011;9396;51.510;11.934;2022-12-18T10:45:58;15.57;;;8.93;;
18532;SDS011;9396;51.510;11.934;2022-12-18T10:48:31;15.38;;;9.35;;
18532;SDS011;9396;51.510;11.934;2022-12-18T10:50:59;13.55;;;7.90;;
18532;SDS011;9396;51.510;11.934;2022-12-18T10:53:27;16.48;;;8.80;;
18532;SDS011;9396;51.510;11.934;2022-12-18T10:56:03;16.15;;;10.30;;
18532;SDS011;9396;51.510;11.934;2022-12-18T10:58:32;14.73;;;8.50;;
18532;SDS011;9396;51.510;11.934;2022-12-18T11:01:05;15.32;;;8.95;;
18532;SDS011;9396;51.510;11.934;2022-12-18T11:03:34;14.23;;;8.60;;
18532;SDS011;9396;51.510;11.934;2022-12-18T11:06:03;15.35;;;8.98;;
18532;SDS011;9396;51.510;11.934;2022-12-18T11:08:32;14.98;;;8.45;;
18532;SDS011;9396;51.510;11.934;2022-12-18T11:11:00;16.75;;;9.43;;
18532;SDS011;9396;51.510;11.934;2022-12-18T11:13:27;13.02;;;7.95;;
18532;SDS011;9396;51.510;11.934;2022-12-18T11:15:56;18.42;;;8.18;;
18532;SDS011;9396;51.510;11.934;2022-12-18T11:18:25;14.45;;;8.45;;
18532;SDS011;9396;51.510;11.934;2022-12-18T11:20:55;15.93;;;8.85;;
18532;SDS011;9396;51.510;11.934;2022-12-18T11:23:23;12.48;;;8.40;;
18532;SDS011;9396;51.510;11.934;2022-12-18T11:25:51;19.03;;;8.80;;
18532;SDS011;9396;51.510;11.934;2022-12-18T11:28:29;13.47;;;8.27;;
18532;SDS011;9396;51.510;11.934;2022-12-18T11:31:21;15.40;;;8.30;;
18532;SDS011;9396;51.510;11.934;2022-12-18T11:33:52;13.23;;;8.37;;
18532;SDS011;9396;51.510;11.934;2022-12-18T11:36:24;16.70;;;8.30;;
18532;SDS011;9396;51.510;11.934;2022-12-18T11:38:54;12.10;;;8.02;;
18532;SDS011;9396;51.510;11.934;2022-12-18T11:41:26;14.60;;;7.53;;
18532;SDS011;9396;51.510;11.934;2022-12-18T11:44:11;15.60;;;8.53;;
18532;SDS011;9396;51.510;11.934;2022-12-18T11:46:43;11.13;;;7.43;;
18532;SDS011;9396;51.510;11.934;2022-12-18T11:49:15;13.27;;;7.93;;
18532;SDS011;9396;51.510;11.934;2022-12-18T11:51:47;12.27;;;7.80;;
18532;SDS011;9396;51.510;11.934;2022-12-18T11:54:17;15.50;;;8.13;;
18532;SDS011;9396;51.510;11.934;2022-12-18T11:56:46;14.65;;;7.35;;
18532;SDS011;9396;51.510;11.934;2022-12-18T11:59:18;16.00;;;7.93;;
18532;SDS011;9396;51.510;11.934;2022-12-18T12:01:58;15.00;;;7.70;;
18532;SDS011;9396;51.510;11.934;2022-12-18T12:04:48;11.67;;;7.53;;
18532;SDS011;9396;51.510;11.934;2022-12-18T12:07:30;13.03;;;7.40;;
18532;SDS011;9396;51.510;11.934;2022-12-18T12:10:08;18.13;;;8.00;;
18532;SDS011;9396;51.510;11.934;2022-12-18T12:12:52;13.83;;;7.90;;
18532;SDS011;9396;51.510;11.934;2022-12-18T12:15:32;12.67;;;7.40;;
18532;SDS011;9396;51.510;11.934;2022-12-18T12:18:08;13.50;;;8.83;;
18532;SDS011;9396;51.510;11.934;2022-12-18T12:20:47;13.43;;;7.83;;
18532;SDS011;9396;51.510;11.934;2022-12-18T12:23:22;16.33;;;8.23;;
18532;SDS011;9396;51.510;11.934;2022-12-18T12:25:56;16.80;;;8.07;;
18532;SDS011;9396;51.510;11.934;2022-12-18T12:28:31;17.07;;;8.00;;
18532;SDS011;9396;51.510;11.934;2022-12-18T12:31:13;12.60;;;7.13;;
18532;SDS011;9396;51.510;11.934;2022-12-18T12:33:51;12.67;;;7.77;;
18532;SDS011;9396;51.510;11.934;2022-12-18T12:36:25;14.13;;;7.73;;
18532;SDS011;9396;51.510;11.934;2022-12-18T12:42:24;15.23;;;7.90;;
18532;SDS011;9396;51.510;11.934;2022-12-18T12:45:15;15.47;;;8.43;;
18532;SDS011;9396;51.510;11.934;2022-12-18T12:47:48;16.17;;;9.00;;
18532;SDS011;9396;51.510;11.934;2022-12-18T12:50:17;14.97;;;8.37;;
18532;SDS011;9396;51.510;11.934;2022-12-18T12:52:47;13.73;;;8.07;;
18532;SDS011;9396;51.510;11.934;2022-12-18T12:55:19;12.77;;;8.23;;
18532;SDS011;9396;51.510;11.934;2022-12-18T12:57:50;12.17;;;7.80;;
18532;SDS011;9396;51.510;11.934;2022-12-18T13:00:22;15.27;;;8.23;;
18532;SDS011;9396;51.510;11.934;2022-12-18T13:02:53;14.07;;;8.33;;
18532;SDS011;9396;51.510;11.934;2022-12-18T13:05:34;14.43;;;7.80;;
18532;SDS011;9396;51.510;11.934;2022-12-18T13:08:11;10.97;;;6.57;;
18532;SDS011;9396;51.510;11.934;2022-12-18T13:10:48;10.43;;;6.80;;
18532;SDS011;9396;51.510;11.934;2022-12-18T13:13:15;13.53;;;7.67;;
18532;SDS011;9396;51.510;11.934;2022-12-18T13:15:42;14.17;;;7.63;;
18532;SDS011;9396;51.510;11.934;2022-12-18T13:18:16;10.80;;;6.70;;
18532;SDS011;9396;51.510;11.934;2022-12-18T13:20:45;9.53;;;6.73;;
18532;SDS011;9396;51.510;11.934;2022-12-18T13:23:27;14.87;;;8.43;;
18532;SDS011;9396;51.510;11.934;2022-12-18T13:25:58;15.20;;;8.70;;
18532;SDS011;9396;51.510;11.934;2022-12-18T13:34:35;13.27;;;8.27;;
18532;SDS011;9396;51.510;11.934;2022-12-18T13:43:22;11.93;;;6.87;;
18532;SDS011;9396;51.510;11.934;2022-12-18T13:46:00;17.00;;;8.30;;
18532;SDS011;9396;51.510;11.934;2022-12-18T13:48:30;11.88;;;7.97;;
18532;SDS011;9396;51.510;11.934;2022-12-18T13:51:01;14.07;;;8.57;;
18532;SDS011;9396;51.510;11.934;2022-12-18T13:53:31;14.67;;;9.00;;
18532;SDS011;9396;51.510;11.934;2022-12-18T13:56:04;16.63;;;9.45;;
18532;SDS011;9396;51.510;11.934;2022-12-18T13:58:31;20.65;;;9.95;;
18532;SDS011;9396;51.510;11.934;2022-12-18T14:00:59;17.10;;;10.10;;
18532;SDS011;9396;51.510;11.934;2022-12-18T14:03:28;14.88;;;9.77;;
18532;SDS011;9396;51.510;11.934;2022-12-18T14:06:01;17.33;;;10.05;;
18532;SDS011;9396;51.510;11.934;2022-12-18T14:08:35;16.83;;;9.68;;
18532;SDS011;9396;51.510;11.934;2022-12-18T14:11:05;17.38;;;10.02;;
18532;SDS011;9396;51.510;11.934;2022-12-18T14:13:33;15.18;;;9.45;;
18532;SDS011;9396;51.510;11.934;2022-12-18T14:16:03;13.67;;;8.70;;
18532;SDS011;9396;51.510;11.934;2022-12-18T14:18:36;14.53;;;8.87;;
18532;SDS011;9396;51.510;11.934;2022-12-18T14:21:13;15.40;;;9.25;;
18532;SDS011;9396;51.510;11.934;2022-12-18T14:23:44;17.27;;;10.10;;
18532;SDS011;9396;51.510;11.934;2022-12-18T14:26:21;18.42;;;10.55;;
18532;SDS011;9396;51.510;11.934;2022-12-18T14:28:52;16.30;;;9.77;;
18532;SDS011;9396;51.510;11.934;2022-12-18T14:31:19;17.52;;;10.13;;
18532;SDS011;9396;51.510;11.934;2022-12-18T14:33:48;20.67;;;9.75;;
18532;SDS011;9396;51.510;11.934;2022-12-18T14:36:17;20.92;;;11.30;;
18532;SDS011;9396;51.510;11.934;2022-12-18T14:38:48;18.30;;;11.15;;
18532;SDS011;9396;51.510;11.934;2022-12-18T14:41:16;20.38;;;10.18;;
18532;SDS011;9396;51.510;11.934;2022-12-18T14:43:45;17.40;;;10.07;;
18532;SDS011;9396;51.510;11.934;2022-12-18T14:46:27;19.77;;;11.02;;
18532;SDS011;9396;51.510;11.934;2022-12-18T14:48:56;22.17;;;12.35;;
18532;SDS011;9396;51.510;11.934;2022-12-18T14:51:27;19.25;;;10.80;;
18532;SDS011;9396;51.510;11.934;2022-12-18T14:53:56;19.80;;;11.07;;
18532;SDS011;9396;51.510;11.934;2022-12-18T14:56:26;17.92;;;10.45;;